createdAt,value
2018-03-04T00:00:03.960Z,97047.70
2018-03-04T00:02:31.823Z,97053.42
2018-03-04T00:04:59.382Z,97057.11
2018-03-04T00:07:26.967Z,97052.48
2018-03-04T00:09:54.506Z,97070.90
2018-03-04T00:12:22.052Z,97070.36
2018-03-04T00:14:49.712Z,97087.31
2018-03-04T00:17:17.228Z,97064.20
2018-03-04T00:19:44.728Z,97093.37
2018-03-04T00:22:12.249Z,97083.33
2018-03-04T00:24:39.734Z,97105.26
2018-03-04T00:27:07.252Z,97096.98
2018-03-04T00:29:34.744Z,97108.09
2018-03-04T00:32:02.260Z,97114.03
2018-03-04T00:34:29.784Z,97127.16
2018-03-04T00:36:57.352Z,97136.17
2018-03-04T00:39:24.864Z,97131.38
2018-03-04T00:41:52.459Z,97148.05
2018-03-04T00:44:19.985Z,97153.64
2018-03-04T00:46:47.575Z,97154.83
2018-03-04T00:49:15.072Z,97174.36
2018-03-04T00:51:42.593Z,97141.31
2018-03-04T00:54:10.100Z,97140.58
2018-03-04T00:56:37.616Z,97147.41
2018-03-04T00:59:05.167Z,97137.04
2018-03-04T01:01:32.732Z,97126.05
2018-03-04T01:04:00.291Z,97110.47
2018-03-04T01:06:27.812Z,97103.40
2018-03-04T01:08:55.424Z,97103.08
2018-03-04T01:11:22.960Z,97103.88
2018-03-04T01:13:50.528Z,97091.58
2018-03-04T01:16:18.022Z,97084.35
2018-03-04T01:18:45.648Z,97086.86
2018-03-04T01:21:13.208Z,97081.33
2018-03-04T01:23:40.773Z,97084.41
2018-03-04T01:26:08.255Z,97069.11
2018-03-04T01:28:35.801Z,97066.14
2018-03-04T01:31:03.305Z,97062.79
2018-03-04T01:33:30.903Z,97061.59
2018-03-04T01:35:58.403Z,97061.61
2018-03-04T01:38:26.023Z,97068.28
2018-03-04T01:40:53.515Z,97066.23
2018-03-04T01:43:21.035Z,97066.37
2018-03-04T01:45:48.704Z,97058.36
2018-03-04T01:48:16.359Z,97053.09
2018-03-04T01:50:43.872Z,97053.80
2018-03-04T01:53:11.399Z,97058.17
2018-03-04T01:55:38.900Z,97057.52
2018-03-04T01:58:06.444Z,97049.76
2018-03-04T02:00:33.952Z,97052.69
2018-03-04T02:03:01.468Z,97045.39
2018-03-04T02:05:28.962Z,97039.64
2018-03-04T02:07:56.551Z,97027.20
2018-03-04T02:10:24.048Z,97029.02
2018-03-04T02:12:51.579Z,97026.45
2018-03-04T02:15:19.116Z,97025.33
2018-03-04T02:17:46.651Z,97032.56
2018-03-04T02:20:14.227Z,97022.91
2018-03-04T02:22:41.791Z,97026.94
2018-03-04T02:25:09.351Z,97028.03
2018-03-04T02:27:36.928Z,97024.97
2018-03-04T02:30:04.490Z,97018.51
2018-03-04T02:32:32.033Z,97007.08
2018-03-04T02:34:59.616Z,97009.30
2018-03-04T02:37:27.124Z,97014.80
2018-03-04T02:39:54.664Z,97012.78
2018-03-04T02:42:22.167Z,96999.30
2018-03-04T02:44:49.728Z,97003.41
2018-03-04T02:47:17.261Z,97002.31
2018-03-04T02:49:44.768Z,97000.20
2018-03-04T02:52:12.276Z,97007.17
2018-03-04T02:54:39.828Z,97007.09
2018-03-04T02:57:07.319Z,97006.27
2018-03-04T02:59:34.835Z,96998.61
2018-03-04T03:02:02.345Z,96995.94
2018-03-04T03:04:29.908Z,96986.66
2018-03-04T03:06:57.459Z,96988.29
2018-03-04T03:09:25.020Z,96996.34
2018-03-04T03:11:52.520Z,96978.50
2018-03-04T03:14:20.039Z,96966.25
2018-03-04T03:16:47.580Z,96967.53
2018-03-04T03:19:15.159Z,96965.62
2018-03-04T03:21:42.660Z,96963.30
2018-03-04T03:24:10.184Z,96968.44
2018-03-04T03:26:37.681Z,96961.33
2018-03-04T03:29:05.181Z,96972.96
2018-03-04T03:31:32.704Z,96972.19
2018-03-04T03:34:00.216Z,96970.91
2018-03-04T03:36:27.739Z,96972.23
2018-03-04T03:38:55.312Z,96962.19
2018-03-04T03:41:22.827Z,96963.59
2018-03-04T03:43:50.351Z,96957.64
2018-03-04T03:46:17.998Z,96956.25
2018-03-04T03:48:45.571Z,96947.17
2018-03-04T03:51:13.135Z,96949.80
2018-03-04T03:53:40.631Z,96936.13
2018-03-04T03:56:08.152Z,96942.09
2018-03-04T03:58:35.647Z,96935.42
2018-03-04T04:01:03.155Z,96939.00
2018-03-04T04:03:30.644Z,96933.55
2018-03-04T04:05:58.184Z,96931.22
2018-03-04T04:08:25.736Z,96935.39
2018-03-04T04:10:53.256Z,96930.34
2018-03-04T04:13:20.852Z,96932.84
2018-03-04T04:15:48.364Z,96929.54
2018-03-04T04:18:15.880Z,96947.02
2018-03-04T04:20:43.393Z,96943.63
2018-03-04T04:23:10.884Z,96953.96
2018-03-04T04:25:38.454Z,96965.00
2018-03-04T04:28:05.961Z,96953.78
2018-03-04T04:30:33.494Z,96956.68
2018-03-04T04:33:01.023Z,96945.63
2018-03-04T04:35:28.580Z,96946.11
2018-03-04T04:37:56.092Z,96942.98
2018-03-04T04:40:23.592Z,96949.31
2018-03-04T04:42:51.103Z,96950.31
2018-03-04T04:45:18.627Z,96954.58
2018-03-04T04:47:46.151Z,96947.13
2018-03-04T04:50:13.735Z,96943.19
2018-03-04T04:52:41.244Z,96945.66
2018-03-04T04:55:08.750Z,96936.06
2018-03-04T04:57:36.263Z,96947.58
2018-03-04T05:00:03.751Z,96948.68
2018-03-04T05:02:31.272Z,96944.30
2018-03-04T05:04:58.756Z,96954.43
2018-03-04T05:07:26.368Z,96928.20
2018-03-04T05:09:53.851Z,96914.69
2018-03-04T05:12:21.373Z,96907.92
2018-03-04T05:14:48.868Z,96901.33
2018-03-04T05:17:16.380Z,96903.12
2018-03-04T05:19:43.939Z,96889.48
2018-03-04T05:22:11.671Z,96892.67
2018-03-04T05:24:39.263Z,96886.78
2018-03-04T05:27:06.776Z,96877.36
2018-03-04T05:29:34.291Z,96891.22
2018-03-04T05:32:01.806Z,96885.84
2018-03-04T05:34:29.296Z,96889.98
2018-03-04T05:36:56.868Z,96887.47
2018-03-04T05:39:24.368Z,96888.09
2018-03-04T05:41:51.903Z,96899.69
2018-03-04T05:44:19.428Z,96910.89
2018-03-04T05:46:46.919Z,96903.05
2018-03-04T05:49:14.427Z,96891.18
2018-03-04T05:51:41.928Z,96880.81
2018-03-04T05:54:09.448Z,96874.48
2018-03-04T05:56:37.036Z,96880.89
2018-03-04T05:59:04.553Z,96869.30
2018-03-04T06:01:32.058Z,96869.80
2018-03-04T06:03:59.567Z,96871.84
2018-03-04T06:06:27.990Z,96868.48
2018-03-04T06:08:55.524Z,96867.55
2018-03-04T06:11:23.040Z,96863.77
2018-03-04T06:13:50.675Z,96874.63
2018-03-04T06:16:18.164Z,96883.61
2018-03-04T06:18:45.680Z,96885.42
2018-03-04T06:21:13.166Z,96891.13
2018-03-04T06:23:40.703Z,96887.00
2018-03-04T06:26:08.189Z,96879.75
2018-03-04T06:28:35.737Z,96881.73
2018-03-04T06:31:03.228Z,96868.67
2018-03-04T06:33:30.743Z,96868.29
2018-03-04T06:35:58.264Z,96861.66
2018-03-04T06:38:25.888Z,96863.50
2018-03-04T06:40:53.378Z,96853.01
2018-03-04T06:43:20.919Z,96852.00
2018-03-04T06:45:48.416Z,96850.70
2018-03-04T06:48:16.008Z,96859.88
2018-03-04T06:50:43.524Z,96856.33
2018-03-04T06:53:11.015Z,96847.47
2018-03-04T06:55:38.552Z,96850.27
2018-03-04T06:58:06.143Z,96840.61
2018-03-04T07:00:33.689Z,96841.80
2018-03-04T07:03:01.263Z,96833.34
2018-03-04T07:05:28.813Z,96840.66
2018-03-04T07:07:56.371Z,96829.98
2018-03-04T07:10:23.889Z,96819.15
2018-03-04T07:12:51.483Z,96822.91
2018-03-04T07:15:19.176Z,96817.31
2018-03-04T07:17:46.676Z,96816.28
2018-03-04T07:20:14.282Z,96819.03
2018-03-04T07:22:41.831Z,96818.20
2018-03-04T07:25:09.384Z,96806.42
2018-03-04T07:27:37.049Z,96815.79
2018-03-04T07:30:04.622Z,96817.16
2018-03-04T07:32:32.175Z,96822.48
2018-03-04T07:34:59.685Z,96841.27
2018-03-04T07:37:27.176Z,96855.14
2018-03-04T07:39:54.743Z,96859.27
2018-03-04T07:42:22.311Z,96844.94
2018-03-04T07:44:49.815Z,96837.30
2018-03-04T07:47:17.355Z,96841.91
2018-03-04T07:49:44.851Z,96844.30
2018-03-04T07:52:12.343Z,96852.72
2018-03-04T07:54:39.875Z,96856.92
2018-03-04T07:57:07.367Z,96851.05
2018-03-04T07:59:34.884Z,96841.14
2018-03-04T08:02:02.398Z,96836.13
2018-03-04T08:04:29.912Z,96820.97
2018-03-04T08:06:57.480Z,96817.80
2018-03-04T08:09:24.973Z,96808.35
2018-03-04T08:11:52.492Z,96801.05
2018-03-04T08:14:19.980Z,96794.30
2018-03-04T08:16:47.514Z,96787.20
2018-03-04T08:19:15.016Z,96794.28
2018-03-04T08:21:42.605Z,96794.70
2018-03-04T08:24:10.105Z,96792.06
2018-03-04T08:26:49.587Z,96785.93
2018-03-04T08:29:17.080Z,96799.45
2018-03-04T08:31:44.695Z,96796.25
2018-03-04T08:34:12.217Z,96800.45
2018-03-04T08:36:39.802Z,96803.59
2018-03-04T08:39:07.347Z,96798.09
2018-03-04T08:41:34.859Z,96787.69
2018-03-04T08:44:02.360Z,96795.28
2018-03-04T08:46:29.876Z,96788.77
2018-03-04T08:48:57.360Z,96782.80
2018-03-04T08:51:24.882Z,96777.76
2018-03-04T08:53:52.367Z,96765.16
2018-03-04T08:56:19.955Z,96770.93
2018-03-04T08:58:47.542Z,96762.08
2018-03-04T09:01:15.040Z,96764.87
2018-03-04T09:03:42.639Z,96765.93
2018-03-04T09:06:10.147Z,96764.87
2018-03-04T09:08:37.679Z,96761.61
2018-03-04T09:11:05.184Z,96757.08
2018-03-04T09:13:32.692Z,96765.27
2018-03-04T09:16:00.232Z,96758.32
2018-03-04T09:18:27.792Z,96759.59
2018-03-04T09:20:55.272Z,96754.75
2018-03-04T09:23:22.811Z,96759.25
2018-03-04T09:25:50.305Z,96764.59
2018-03-04T09:28:17.829Z,96766.12
2018-03-04T09:30:45.332Z,96766.09
2018-03-04T09:33:12.886Z,96762.94
2018-03-04T09:35:40.382Z,96757.69
2018-03-04T09:38:07.959Z,96758.82
2018-03-04T09:40:35.528Z,96756.25
2018-03-04T09:43:03.049Z,96756.98
2018-03-04T09:45:30.584Z,96756.95
2018-03-04T09:47:58.083Z,96750.95
2018-03-04T09:50:25.580Z,96742.70
2018-03-04T09:52:53.099Z,96737.77
2018-03-04T09:55:20.586Z,96742.30
2018-03-04T09:57:48.099Z,96745.19
2018-03-04T10:00:15.692Z,96744.13
2018-03-04T10:02:43.368Z,96743.70
2018-03-04T10:05:10.871Z,96744.30
2018-03-04T10:07:38.392Z,96749.17
2018-03-04T10:10:05.912Z,96749.51
2018-03-04T10:12:33.420Z,96748.58
2018-03-04T10:15:00.952Z,96740.95
2018-03-04T10:17:28.448Z,96733.67
2018-03-04T10:19:55.968Z,96732.16
2018-03-04T10:22:23.839Z,96723.49
2018-03-04T10:24:51.365Z,96722.45
2018-03-04T10:27:18.866Z,96719.38
2018-03-04T10:29:46.415Z,96713.20
2018-03-04T10:32:13.919Z,96715.05
2018-03-04T10:34:41.528Z,96709.92
2018-03-04T10:37:09.020Z,96702.03
2018-03-04T10:39:36.544Z,96706.41
2018-03-04T10:42:04.055Z,96703.00
2018-03-04T10:44:31.576Z,96709.16
2018-03-04T10:46:59.246Z,96712.73
2018-03-04T10:49:26.818Z,96704.70
2018-03-04T10:51:54.369Z,96701.72
2018-03-04T10:54:21.903Z,96692.76
2018-03-04T10:56:49.478Z,96684.06
2018-03-04T10:59:16.971Z,96682.68
2018-03-04T11:01:44.508Z,96685.72
2018-03-04T11:04:12.056Z,96702.02
2018-03-04T11:06:39.576Z,96704.80
2018-03-04T11:09:07.076Z,96708.09
2018-03-04T11:11:34.644Z,96709.63
2018-03-04T11:14:02.208Z,96703.08
2018-03-04T11:16:29.735Z,96690.12
2018-03-04T11:18:57.224Z,96689.88
2018-03-04T11:21:24.876Z,96694.56
2018-03-04T11:23:52.380Z,96680.72
2018-03-04T11:26:19.896Z,96685.48
2018-03-04T11:28:47.473Z,96690.91
2018-03-04T11:31:14.987Z,96690.38
2018-03-04T11:33:42.504Z,96688.02
2018-03-04T11:36:10.015Z,96692.67
2018-03-04T11:38:37.503Z,96680.84
2018-03-04T11:41:05.031Z,96678.08
2018-03-04T11:43:32.522Z,96677.52
2018-03-04T11:46:00.167Z,96665.42
2018-03-04T11:48:27.696Z,96664.52
2018-03-04T11:50:55.243Z,96659.09
2018-03-04T11:53:22.742Z,96657.70
2018-03-04T11:55:50.259Z,96659.52
2018-03-04T11:58:17.759Z,96650.82
2018-03-04T12:00:45.300Z,96638.74
2018-03-04T12:03:12.873Z,96633.70
2018-03-04T12:05:40.372Z,96628.67
2018-03-04T12:08:07.982Z,96624.41
2018-03-04T12:10:35.476Z,96615.40
2018-03-04T12:13:03.076Z,96617.07
2018-03-04T12:15:30.662Z,96612.16
2018-03-04T12:17:58.222Z,96612.89
2018-03-04T12:20:25.708Z,96602.13
2018-03-04T12:22:53.239Z,96598.59
2018-03-04T12:25:20.835Z,96598.23
2018-03-04T12:27:48.375Z,96587.61
2018-03-04T12:30:15.862Z,96592.22
2018-03-04T12:32:43.383Z,96587.68
2018-03-04T12:35:10.927Z,96576.03
2018-03-04T12:37:38.492Z,96569.53
2018-03-04T12:40:06.070Z,96567.09
2018-03-04T12:42:33.612Z,96564.61
2018-03-04T12:45:01.120Z,96561.06
2018-03-04T12:47:28.630Z,96560.80
2018-03-04T12:49:56.148Z,96562.98
2018-03-04T12:52:23.657Z,96554.17
2018-03-04T12:54:51.203Z,96553.95
2018-03-04T12:57:18.762Z,96542.97
2018-03-04T12:59:46.323Z,96546.38
2018-03-04T13:02:13.879Z,96537.97
2018-03-04T13:04:41.375Z,96535.27
2018-03-04T13:07:08.900Z,96539.27
2018-03-04T13:09:36.411Z,96543.59
2018-03-04T13:12:03.970Z,96541.37
2018-03-04T13:14:31.470Z,96525.23
2018-03-04T13:16:58.968Z,96520.33
2018-03-04T13:19:26.607Z,96513.02
2018-03-04T13:21:54.178Z,96505.55
2018-03-04T13:24:21.735Z,96499.00
2018-03-04T13:26:49.224Z,96496.89
2018-03-04T13:29:16.743Z,96485.03
2018-03-04T13:31:44.295Z,96476.77
2018-03-04T13:34:11.878Z,96483.20
2018-03-04T13:36:39.368Z,96485.65
2018-03-04T13:39:06.912Z,96487.53
2018-03-04T13:41:34.427Z,96483.14
2018-03-04T13:44:01.987Z,96478.11
2018-03-04T13:46:29.587Z,96479.92
2018-03-04T13:48:57.104Z,96483.95
2018-03-04T13:51:24.691Z,96477.55
2018-03-04T13:53:52.226Z,96475.62
2018-03-04T13:56:19.810Z,96468.97
2018-03-04T13:58:47.323Z,96475.62
2018-03-04T14:01:14.912Z,96479.23
2018-03-04T14:03:42.479Z,96479.55
2018-03-04T14:06:10.032Z,96473.75
2018-03-04T14:08:37.636Z,96460.12
2018-03-04T14:11:05.146Z,96465.44
2018-03-04T14:13:32.715Z,96463.56
2018-03-04T14:16:00.206Z,96459.69
2018-03-04T14:18:27.712Z,96458.33
2018-03-04T14:20:55.196Z,96463.46
2018-03-04T14:23:22.742Z,96457.70
2018-03-04T14:25:50.276Z,96450.69
2018-03-04T14:28:17.765Z,96456.41
2018-03-04T14:30:45.288Z,96448.80
2018-03-04T14:33:12.776Z,96456.89
2018-03-04T14:35:40.339Z,96459.53
2018-03-04T14:38:07.895Z,96453.66
2018-03-04T14:40:35.461Z,96458.67
2018-03-04T14:43:02.952Z,96453.50
2018-03-04T14:45:30.475Z,96450.88
2018-03-04T14:47:57.960Z,96451.61
2018-03-04T14:50:25.717Z,96454.52
2018-03-04T14:52:53.321Z,96447.54
2018-03-04T14:55:20.825Z,96440.38
2018-03-04T14:57:48.384Z,96442.16
2018-03-04T15:00:15.932Z,96443.38
2018-03-04T15:02:43.420Z,96451.66
2018-03-04T15:05:10.941Z,96458.89
2018-03-04T15:07:38.428Z,96452.06
2018-03-04T15:10:05.940Z,96447.80
2018-03-04T15:12:33.474Z,96448.16
2018-03-04T15:15:01.007Z,96447.25
2018-03-04T15:17:28.550Z,96444.47
2018-03-04T15:19:56.062Z,96454.08
2018-03-04T15:22:23.553Z,96443.74
2018-03-04T15:24:51.085Z,96445.32
2018-03-04T15:27:18.696Z,96445.06
2018-03-04T15:29:46.196Z,96436.83
2018-03-04T15:32:13.803Z,96435.47
2018-03-04T15:34:41.363Z,96433.34
2018-03-04T15:37:08.867Z,96430.64
2018-03-04T15:39:36.361Z,96427.28
2018-03-04T15:42:03.876Z,96427.91
2018-03-04T15:44:31.884Z,96428.13
2018-03-04T15:46:59.408Z,96420.58
2018-03-04T15:49:26.913Z,96420.41
2018-03-04T15:51:54.423Z,96415.87
2018-03-04T15:54:21.947Z,96418.05
2018-03-04T15:56:49.531Z,96417.63
2018-03-04T15:59:17.032Z,96410.12
2018-03-04T16:01:44.541Z,96414.42
2018-03-04T16:04:12.076Z,96415.95
2018-03-04T16:06:39.579Z,96414.41
2018-03-04T16:09:07.067Z,96416.81
2018-03-04T16:11:34.576Z,96420.65
2018-03-04T16:14:02.059Z,96419.31
2018-03-04T16:16:29.677Z,96419.77
2018-03-04T16:18:57.162Z,96426.56
2018-03-04T16:21:24.683Z,96423.95
2018-03-04T16:23:52.256Z,96421.48
2018-03-04T16:26:19.772Z,96432.63
2018-03-04T16:28:47.255Z,96424.91
2018-03-04T16:31:14.779Z,96428.03
2018-03-04T16:33:42.288Z,96434.06
2018-03-04T16:36:09.847Z,96438.80
2018-03-04T16:38:37.416Z,96431.60
2018-03-04T16:41:04.968Z,96439.66
2018-03-04T16:43:32.522Z,96439.27
2018-03-04T16:46:00.087Z,96454.44
2018-03-04T16:48:27.651Z,96451.94
2018-03-04T16:50:55.138Z,96445.61
2018-03-04T16:53:22.661Z,96448.20
2018-03-04T16:55:50.148Z,96457.67
2018-03-04T16:58:17.660Z,96461.66
2018-03-04T17:00:45.151Z,96463.39
2018-03-04T17:03:12.800Z,96467.59
2018-03-04T17:05:40.293Z,96469.84
2018-03-04T17:08:07.815Z,96476.72
2018-03-04T17:10:35.380Z,96485.22
2018-03-04T17:13:02.940Z,96484.08
2018-03-04T17:15:30.603Z,96486.19
2018-03-04T17:17:58.108Z,96484.52
2018-03-04T17:20:25.596Z,96484.48
2018-03-04T17:22:53.152Z,96491.01
2018-03-04T17:25:20.736Z,96488.50
2018-03-04T17:27:48.243Z,96489.22
2018-03-04T17:30:15.755Z,96496.92
2018-03-04T17:32:43.256Z,96482.70
2018-03-04T17:35:10.831Z,96466.01
2018-03-04T17:37:38.340Z,96473.45
2018-03-04T17:40:05.856Z,96494.81
2018-03-04T17:42:33.339Z,96497.89
2018-03-04T17:45:00.943Z,96506.16
2018-03-04T17:47:28.435Z,96516.45
2018-03-04T17:49:56.963Z,96515.20
2018-03-04T17:52:24.491Z,96505.66
2018-03-04T17:54:52.073Z,96509.83
2018-03-04T17:57:19.563Z,96510.03
2018-03-04T17:59:47.104Z,96509.81
2018-03-04T18:02:14.583Z,96517.98
2018-03-04T18:04:42.102Z,96520.80
2018-03-04T18:07:09.665Z,96525.03
2018-03-04T18:09:37.184Z,96540.70
2018-03-04T18:12:04.671Z,96542.73
2018-03-04T18:14:32.176Z,96535.14
2018-03-04T18:16:59.696Z,96513.41
2018-03-04T18:19:27.255Z,96528.38
2018-03-04T18:21:54.820Z,96528.31
2018-03-04T18:24:22.379Z,96544.04
2018-03-04T18:26:49.940Z,96571.67
2018-03-04T18:29:17.497Z,96592.78
2018-03-04T18:31:44.999Z,96591.28
2018-03-04T18:34:12.560Z,96583.69
2018-03-04T18:36:40.098Z,96561.11
2018-03-04T18:39:07.614Z,96560.86
2018-03-04T18:41:35.178Z,96562.73
2018-03-04T18:44:02.763Z,96568.70
2018-03-04T18:46:30.271Z,96588.30
2018-03-04T18:48:57.759Z,96599.96
2018-03-04T18:51:25.283Z,96610.14
2018-03-04T18:53:52.775Z,96628.31
2018-03-04T18:56:20.358Z,96641.75
2018-03-04T18:58:47.908Z,96658.10
2018-03-04T19:01:15.472Z,96659.62
2018-03-04T19:03:43.006Z,96665.97
2018-03-04T19:06:10.519Z,96685.21
2018-03-04T19:08:38.011Z,96680.88
2018-03-04T19:11:05.516Z,96679.84
2018-03-04T19:13:33.089Z,96689.97
2018-03-04T19:16:00.601Z,96701.06
2018-03-04T19:18:28.205Z,96701.57
2018-03-04T19:20:55.720Z,96709.00
2018-03-04T19:23:23.224Z,96717.34
2018-03-04T19:25:50.735Z,96731.27
2018-03-04T19:28:18.299Z,96749.28
2018-03-04T19:30:45.862Z,96749.70
2018-03-04T19:33:13.440Z,96755.30
2018-03-04T19:35:40.963Z,96764.97
2018-03-04T19:38:08.451Z,96770.22
2018-03-04T19:40:35.972Z,96777.89
2018-03-04T19:43:03.457Z,96782.91
2018-03-04T19:45:30.982Z,96794.68
2018-03-04T19:47:58.469Z,96795.50
2018-03-04T19:50:25.994Z,96800.55
2018-03-04T19:52:53.475Z,96809.72
2018-03-04T19:55:21.050Z,96813.27
2018-03-04T19:57:48.630Z,96828.56
2018-03-04T20:00:16.112Z,96839.26
2018-03-04T20:02:43.638Z,96843.22
2018-03-04T20:05:11.128Z,96847.88
2018-03-04T20:07:38.783Z,96854.65
2018-03-04T20:10:06.532Z,96851.80
2018-03-04T20:12:34.097Z,96868.34
2018-03-04T20:15:01.669Z,96866.47
2018-03-04T20:17:29.174Z,96868.08
2018-03-04T20:19:56.661Z,96866.47
2018-03-04T20:22:24.176Z,96869.88
2018-03-04T20:24:52.432Z,96870.10
2018-03-04T20:27:19.945Z,96879.10
2018-03-04T20:29:47.428Z,96875.70
2018-03-04T20:32:14.948Z,96880.19
2018-03-04T20:34:42.535Z,96883.04
2018-03-04T20:37:10.118Z,96883.86
2018-03-04T20:39:37.608Z,96887.29
2018-03-04T20:42:05.238Z,96887.47
2018-03-04T20:44:32.752Z,96879.19
2018-03-04T20:47:00.265Z,96876.84
2018-03-04T20:49:27.760Z,96875.48
2018-03-04T20:51:55.266Z,96879.41
2018-03-04T20:54:22.761Z,96882.83
2018-03-04T20:56:50.259Z,96884.91
2018-03-04T20:59:17.768Z,96879.26
2018-03-04T21:01:45.312Z,96878.39
2018-03-04T21:04:12.851Z,96878.78
2018-03-04T21:06:40.358Z,96876.66
2018-03-04T21:09:07.863Z,96881.78
2018-03-04T21:11:35.371Z,96882.36
2018-03-04T21:14:02.870Z,96883.27
2018-03-04T21:16:30.376Z,96888.17
2018-03-04T21:18:57.900Z,96889.44
2018-03-04T21:21:25.459Z,96889.13
2018-03-04T21:23:53.010Z,96887.89
2018-03-04T21:26:20.573Z,96884.83
2018-03-04T21:28:48.083Z,96886.05
2018-03-04T21:31:15.558Z,96887.23
2018-03-04T21:33:43.152Z,96899.77
2018-03-04T21:36:10.713Z,96902.41
2018-03-04T21:38:38.219Z,96910.52
2018-03-04T21:41:05.699Z,96915.49
2018-03-04T21:43:33.288Z,96914.94
2018-03-04T21:46:00.784Z,96920.66
2018-03-04T21:48:28.307Z,96924.52
2018-03-04T21:50:55.866Z,96922.42
2018-03-04T21:53:23.387Z,96919.17
2018-03-04T21:55:51.008Z,96929.56
2018-03-04T21:58:18.520Z,96922.84
2018-03-04T22:00:46.278Z,96925.92
2018-03-04T22:03:13.784Z,96935.31
2018-03-04T22:05:41.302Z,96933.23
2018-03-04T22:08:08.795Z,96935.81
2018-03-04T22:10:36.287Z,96938.19
2018-03-04T22:13:03.812Z,96928.89
2018-03-04T22:15:31.295Z,96933.98
2018-03-04T22:17:58.847Z,96931.95
2018-03-04T22:20:26.330Z,96933.17
2018-03-04T22:22:53.840Z,96917.59
2018-03-04T22:25:21.391Z,96918.47
2018-03-04T22:27:48.895Z,96911.41
2018-03-04T22:30:16.412Z,96912.59
2018-03-04T22:32:43.921Z,96918.45
2018-03-04T22:35:11.435Z,96921.77
2018-03-04T22:37:38.955Z,96916.09
2018-03-04T22:40:06.453Z,96919.96
2018-03-04T22:42:33.962Z,96921.58
2018-03-04T22:45:01.469Z,96921.13
2018-03-04T22:47:28.992Z,96922.24
2018-03-04T22:49:56.473Z,96915.61
2018-03-04T22:52:23.986Z,96917.53
2018-03-04T22:54:51.498Z,96916.88
2018-03-04T22:57:19.082Z,96908.80
2018-03-04T22:59:46.699Z,96915.44
2018-03-04T23:02:14.184Z,96917.89
2018-03-04T23:04:41.683Z,96911.41
2018-03-04T23:07:09.183Z,96914.80
2018-03-04T23:09:36.719Z,96911.53
2018-03-04T23:12:04.207Z,96912.27
2018-03-04T23:14:31.716Z,96908.31
2018-03-04T23:16:59.203Z,96911.02
2018-03-04T23:19:26.709Z,96917.70
2018-03-04T23:21:54.192Z,96908.55
2018-03-04T23:24:21.706Z,96915.45
2018-03-04T23:26:49.219Z,96920.25
2018-03-04T23:29:16.728Z,96924.74
2018-03-04T23:31:44.290Z,96920.15
2018-03-04T23:34:11.800Z,96921.66
2018-03-04T23:36:39.284Z,96926.88
2018-03-04T23:39:06.828Z,96926.80
2018-03-04T23:41:34.311Z,96923.50
2018-03-04T23:44:01.811Z,96929.98
2018-03-04T23:46:29.307Z,96926.55
2018-03-04T23:48:56.816Z,96922.94
2018-03-04T23:51:24.301Z,96929.35
2018-03-04T23:53:51.812Z,96927.90
2018-03-04T23:56:19.291Z,96931.92
2018-03-04T23:58:46.808Z,96929.91
